sensor_id;sensor_type;location;lat;lon;timestamp;pressure;altitude;pressure_sealevel;temperature;humidity
3142;BME280;1581;51.568;6.998;2022-12-18T00:01:34;102169.94;;;-6.04;100.00
3142;BME280;1581;51.568;6.998;2022-12-18T00:04:18;102178.63;;;-6.05;100.00
3142;BME280;1581;51.568;6.998;2022-12-18T00:06:47;102181.16;;;-6.03;100.00
3142;BME280;1581;51.568;6.998;2022-12-18T00:09:15;102179.22;;;-5.97;100.00
3142;BME280;1581;51.568;6.998;2022-12-18T00:11:43;102176.88;;;-6.04;100.00
3142;BME280;1581;51.568;6.998;2022-12-18T00:14:13;102177.72;;;-6.04;100.00
3142;BME280;1581;51.568;6.998;2022-12-18T00:16:44;102183.69;;;-6.02;100.00
3142;BME280;1581;51.568;6.998;2022-12-18T00:19:12;102170.69;;;-6.00;100.00
3142;BME280;1581;51.568;6.998;2022-12-18T00:21:41;102168.44;;;-6.11;100.00
3142;BME280;1581;51.568;6.998;2022-12-18T00:24:10;102161.53;;;-6.12;100.00
3142;BME280;1581;51.568;6.998;2022-12-18T00:26:39;102170.34;;;-6.16;100.00
3142;BME280;1581;51.568;6.998;2022-12-18T00:29:10;102161.97;;;-6.24;100.00
3142;BME280;1581;51.568;6.998;2022-12-18T00:31:42;102155.25;;;-6.31;100.00
3142;BME280;1581;51.568;6.998;2022-12-18T00:34:10;102161.00;;;-6.21;100.00
3142;BME280;1581;51.568;6.998;2022-12-18T00:36:39;102160.94;;;-6.20;100.00
3142;BME280;1581;51.568;6.998;2022-12-18T00:39:10;102160.94;;;-6.20;100.00
3142;BME280;1581;51.568;6.998;2022-12-18T00:41:39;102162.84;;;-6.25;100.00
3142;BME280;1581;51.568;6.998;2022-12-18T00:44:24;102160.25;;;-6.25;100.00
3142;BME280;1581;51.568;6.998;2022-12-18T00:46:53;102167.91;;;-6.20;100.00
3142;BME280;1581;51.568;6.998;2022-12-18T00:49:21;102168.28;;;-6.32;100.00
3142;BME280;1581;51.568;6.998;2022-12-18T00:51:48;102172.00;;;-6.41;100.00
3142;BME280;1581;51.568;6.998;2022-12-18T00:54:17;102168.56;;;-6.41;100.00
3142;BME280;1581;51.568;6.998;2022-12-18T00:56:45;102168.22;;;-6.31;100.00
3142;BME280;1581;51.568;6.998;2022-12-18T00:59:18;102163.91;;;-6.32;100.00
3142;BME280;1581;51.568;6.998;2022-12-18T01:01:48;102163.78;;;-6.27;100.00
3142;BME280;1581;51.568;6.998;2022-12-18T01:04:17;102163.91;;;-6.30;100.00
3142;BME280;1581;51.568;6.998;2022-12-18T01:06:44;102170.41;;;-6.45;100.00
3142;BME280;1581;51.568;6.998;2022-12-18T01:09:19;102168.13;;;-6.55;100.00
3142;BME280;1581;51.568;6.998;2022-12-18T01:11:49;102169.69;;;-6.50;100.00
3142;BME280;1581;51.568;6.998;2022-12-18T01:14:16;102161.84;;;-6.48;100.00
3142;BME280;1581;51.568;6.998;2022-12-18T01:16:44;102169.31;;;-6.38;100.00
3142;BME280;1581;51.568;6.998;2022-12-18T01:19:12;102168.41;;;-6.37;100.00
3142;BME280;1581;51.568;6.998;2022-12-18T01:21:41;102170.16;;;-6.37;100.00
3142;BME280;1581;51.568;6.998;2022-12-18T01:24:12;102169.31;;;-6.38;100.00
3142;BME280;1581;51.568;6.998;2022-12-18T01:26:39;102166.19;;;-6.49;100.00
3142;BME280;1581;51.568;6.998;2022-12-18T01:29:07;102165.38;;;-6.49;100.00
3142;BME280;1581;51.568;6.998;2022-12-18T01:31:34;102162.81;;;-6.51;100.00
3142;BME280;1581;51.568;6.998;2022-12-18T01:34:03;102166.00;;;-6.43;100.00
3142;BME280;1581;51.568;6.998;2022-12-18T01:36:35;102162.81;;;-6.51;100.00
3142;BME280;1581;51.568;6.998;2022-12-18T01:39:10;102164.28;;;-6.42;100.00
3142;BME280;1581;51.568;6.998;2022-12-18T01:41:38;102159.03;;;-6.41;100.00
3142;BME280;1581;51.568;6.998;2022-12-18T01:47:44;102163.97;;;-6.61;100.00
3142;BME280;1581;51.568;6.998;2022-12-18T01:50:16;102155.31;;;-6.60;100.00
3142;BME280;1581;51.568;6.998;2022-12-18T01:52:48;102147.53;;;-6.60;100.00
3142;BME280;1581;51.568;6.998;2022-12-18T01:55:22;102142.28;;;-6.57;100.00
3142;BME280;1581;51.568;6.998;2022-12-18T01:57:55;102152.34;;;-6.48;100.00
3142;BME280;1581;51.568;6.998;2022-12-18T02:00:26;102150.72;;;-6.52;100.00
3142;BME280;1581;51.568;6.998;2022-12-18T02:02:54;102139.56;;;-6.54;100.00
3142;BME280;1581;51.568;6.998;2022-12-18T02:05:36;102138.94;;;-6.60;100.00
3142;BME280;1581;51.568;6.998;2022-12-18T02:08:14;102143.47;;;-6.68;100.00
3142;BME280;1581;51.568;6.998;2022-12-18T02:10:53;102143.34;;;-6.64;100.00
3142;BME280;1581;51.568;6.998;2022-12-18T02:13:29;102143.31;;;-6.62;100.00
3142;BME280;1581;51.568;6.998;2022-12-18T02:16:05;102154.78;;;-6.71;100.00
3142;BME280;1581;51.568;6.998;2022-12-18T02:18:38;102157.38;;;-6.71;100.00
3142;BME280;1581;51.568;6.998;2022-12-18T02:21:15;102156.44;;;-6.68;100.00
3142;BME280;1581;51.568;6.998;2022-12-18T02:23:53;102146.06;;;-6.68;100.00
3142;BME280;1581;51.568;6.998;2022-12-18T02:26:30;102145.09;;;-6.64;100.00
3142;BME280;1581;51.568;6.998;2022-12-18T02:29:05;102139.56;;;-6.54;100.00
3142;BME280;1581;51.568;6.998;2022-12-18T02:31:42;102139.63;;;-6.55;100.00
3142;BME280;1581;51.568;6.998;2022-12-18T02:34:12;102139.75;;;-6.60;100.00
3142;BME280;1581;51.568;6.998;2022-12-18T02:36:42;102136.13;;;-6.54;100.00
3142;BME280;1581;51.568;6.998;2022-12-18T02:39:12;102135.31;;;-6.56;100.00
3142;BME280;1581;51.568;6.998;2022-12-18T02:41:49;102131.28;;;-6.65;100.00
3142;BME280;1581;51.568;6.998;2022-12-18T02:44:17;102139.97;;;-6.66;100.00
3142;BME280;1581;51.568;6.998;2022-12-18T02:46:49;102139.81;;;-6.61;100.00
3142;BME280;1581;51.568;6.998;2022-12-18T02:49:34;102142.41;;;-6.61;100.00
3142;BME280;1581;51.568;6.998;2022-12-18T02:52:13;102146.84;;;-6.65;100.00
3142;BME280;1581;51.568;6.998;2022-12-18T02:55:00;102148.41;;;-6.59;100.00
3142;BME280;1581;51.568;6.998;2022-12-18T02:57:39;102142.56;;;-6.66;100.00
3142;BME280;1581;51.568;6.998;2022-12-18T03:00:12;102142.44;;;-6.63;100.00
3142;BME280;1581;51.568;6.998;2022-12-18T03:02:54;102144.06;;;-6.59;100.00
3142;BME280;1581;51.568;6.998;2022-12-18T03:05:28;102147.75;;;-6.66;100.00
3142;BME280;1581;51.568;6.998;2022-12-18T03:08:00;102144.41;;;-6.69;100.00
3142;BME280;1581;51.568;6.998;2022-12-18T03:10:36;102142.59;;;-6.67;100.00
3142;BME280;1581;51.568;6.998;2022-12-18T03:13:12;102137.59;;;-6.73;100.00
3142;BME280;1581;51.568;6.998;2022-12-18T03:15:45;102137.47;;;-6.69;100.00
3142;BME280;1581;51.568;6.998;2022-12-18T03:18:18;102132.28;;;-6.69;100.00
3142;BME280;1581;51.568;6.998;2022-12-18T03:20:48;102136.34;;;-6.60;100.00
3142;BME280;1581;51.568;6.998;2022-12-18T03:23:22;102123.41;;;-6.62;100.00
3142;BME280;1581;51.568;6.998;2022-12-18T03:25:56;102125.19;;;-6.64;100.00
3142;BME280;1581;51.568;6.998;2022-12-18T03:28:28;102115.78;;;-6.66;100.00
3142;BME280;1581;51.568;6.998;2022-12-18T03:30:59;102118.28;;;-6.63;100.00
3142;BME280;1581;51.568;6.998;2022-12-18T03:33:31;102114.19;;;-6.70;100.00
3142;BME280;1581;51.568;6.998;2022-12-18T03:36:02;102129.59;;;-6.66;100.00
3142;BME280;1581;51.568;6.998;2022-12-18T03:38:30;102125.25;;;-6.65;100.00
3142;BME280;1581;51.568;6.998;2022-12-18T03:41:03;102126.25;;;-6.69;100.00
3142;BME280;1581;51.568;6.998;2022-12-18T03:43:45;102133.97;;;-6.68;100.00
3142;BME280;1581;51.568;6.998;2022-12-18T03:46:23;102124.22;;;-6.60;100.00
3142;BME280;1581;51.568;6.998;2022-12-18T03:48:59;102121.41;;;-6.54;100.00
3142;BME280;1581;51.568;6.998;2022-12-18T03:51:36;102119.13;;;-6.63;100.00
3142;BME280;1581;51.568;6.998;2022-12-18T03:54:07;102129.44;;;-6.61;100.00
3142;BME280;1581;51.568;6.998;2022-12-18T03:56:38;102124.16;;;-6.58;100.00
3142;BME280;1581;51.568;6.998;2022-12-18T03:59:10;102115.47;;;-6.57;100.00
3142;BME280;1581;51.568;6.998;2022-12-18T04:01:42;102123.41;;;-6.62;100.00
3142;BME280;1581;51.568;6.998;2022-12-18T04:04:14;102119.13;;;-6.63;100.00
3142;BME280;1581;51.568;6.998;2022-12-18T04:06:44;102115.53;;;-6.59;100.00
3142;BME280;1581;51.568;6.998;2022-12-18T04:09:13;102117.31;;;-6.59;100.00
3142;BME280;1581;51.568;6.998;2022-12-18T04:11:41;102117.41;;;-6.64;100.00
3142;BME280;1581;51.568;6.998;2022-12-18T04:14:20;102110.66;;;-6.68;100.00
3142;BME280;1581;51.568;6.998;2022-12-18T04:16:48;102117.47;;;-6.65;100.00
3142;BME280;1581;51.568;6.998;2022-12-18T04:19:17;102116.63;;;-6.66;100.00
3142;BME280;1581;51.568;6.998;2022-12-18T04:21:45;102113.19;;;-6.66;100.00
3142;BME280;1581;51.568;6.998;2022-12-18T04:24:12;102114.81;;;-6.64;100.00
3142;BME280;1581;51.568;6.998;2022-12-18T04:26:40;102114.03;;;-6.66;100.00
3142;BME280;1581;51.568;6.998;2022-12-18T04:29:08;102116.53;;;-6.63;100.00
3142;BME280;1581;51.568;6.998;2022-12-18T04:31:37;102110.56;;;-6.65;100.00
3142;BME280;1581;51.568;6.998;2022-12-18T04:34:04;102112.28;;;-6.65;100.00
3142;BME280;1581;51.568;6.998;2022-12-18T04:36:32;102108.72;;;-6.61;100.00
3142;BME280;1581;51.568;6.998;2022-12-18T04:38:59;102112.16;;;-6.61;100.00
3142;BME280;1581;51.568;6.998;2022-12-18T04:41:27;102116.34;;;-6.57;100.00
3142;BME280;1581;51.568;6.998;2022-12-18T04:43:54;102105.16;;;-6.59;100.00
3142;BME280;1581;51.568;6.998;2022-12-18T04:46:22;102110.41;;;-6.60;100.00
3142;BME280;1581;51.568;6.998;2022-12-18T04:48:51;102105.25;;;-6.62;100.00
3142;BME280;1581;51.568;6.998;2022-12-18T04:51:18;102098.44;;;-6.64;100.00
3142;BME280;1581;51.568;6.998;2022-12-18T04:53:46;102105.31;;;-6.63;100.00
3142;BME280;1581;51.568;6.998;2022-12-18T04:56:15;102095.00;;;-6.65;100.00
3142;BME280;1581;51.568;6.998;2022-12-18T04:58:44;102101.03;;;-6.64;100.00
3142;BME280;1581;51.568;6.998;2022-12-18T05:01:13;102102.88;;;-6.68;100.00
3142;BME280;1581;51.568;6.998;2022-12-18T05:03:42;102096.78;;;-6.67;100.00
3142;BME280;1581;51.568;6.998;2022-12-18T05:06:11;102089.09;;;-6.70;100.00
3142;BME280;1581;51.568;6.998;2022-12-18T05:08:38;102092.59;;;-6.71;100.00
3142;BME280;1581;51.568;6.998;2022-12-18T05:11:08;102085.03;;;-6.77;100.00
3142;BME280;1581;51.568;6.998;2022-12-18T05:13:36;102078.81;;;-6.73;100.00
3142;BME280;1581;51.568;6.998;2022-12-18T05:16:05;102077.03;;;-6.69;100.00
3142;BME280;1581;51.568;6.998;2022-12-18T05:18:33;102083.13;;;-6.72;100.00
3142;BME280;1581;51.568;6.998;2022-12-18T05:21:01;102088.16;;;-6.67;100.00
3142;BME280;1581;51.568;6.998;2022-12-18T05:23:30;102074.31;;;-6.66;100.00
3142;BME280;1581;51.568;6.998;2022-12-18T05:26:00;102077.84;;;-6.69;100.00
3142;BME280;1581;51.568;6.998;2022-12-18T05:28:30;102083.03;;;-6.69;100.00
3142;BME280;1581;51.568;6.998;2022-12-18T05:31:01;102089.91;;;-6.68;100.00
3142;BME280;1581;51.568;6.998;2022-12-18T05:33:32;102080.44;;;-6.69;100.00
3142;BME280;1581;51.568;6.998;2022-12-18T05:36:02;102092.69;;;-6.74;100.00
3142;BME280;1581;51.568;6.998;2022-12-18T05:38:33;102082.13;;;-6.68;100.00
3142;BME280;1581;51.568;6.998;2022-12-18T05:41:02;102078.81;;;-6.73;100.00
3142;BME280;1581;51.568;6.998;2022-12-18T05:43:30;102085.72;;;-6.72;100.00
3142;BME280;1581;51.568;6.998;2022-12-18T05:45:57;102093.50;;;-6.72;100.00
3142;BME280;1581;51.568;6.998;2022-12-18T05:48:25;102098.59;;;-6.69;100.00
3142;BME280;1581;51.568;6.998;2022-12-18T05:50:53;102111.44;;;-6.66;100.00
3142;BME280;1581;51.568;6.998;2022-12-18T05:53:21;102114.13;;;-6.69;100.00
3142;BME280;1581;51.568;6.998;2022-12-18T05:56:01;102100.28;;;-6.68;100.00
3142;BME280;1581;51.568;6.998;2022-12-18T05:58:29;102106.56;;;-6.75;100.00
3142;BME280;1581;51.568;6.998;2022-12-18T06:00:57;102110.06;;;-6.77;100.00
3142;BME280;1581;51.568;6.998;2022-12-18T06:03:25;102097.91;;;-6.75;100.00
3142;BME280;1581;51.568;6.998;2022-12-18T06:05:53;102115.22;;;-6.76;100.00
3142;BME280;1581;51.568;6.998;2022-12-18T06:08:20;102122.94;;;-6.74;100.00
3142;BME280;1581;51.568;6.998;2022-12-18T06:10:52;102128.06;;;-6.73;100.00
3142;BME280;1581;51.568;6.998;2022-12-18T06:13:20;102138.69;;;-6.80;100.00
3142;BME280;1581;51.568;6.998;2022-12-18T06:15:48;102141.22;;;-6.78;100.00
3142;BME280;1581;51.568;6.998;2022-12-18T06:18:15;102149.75;;;-6.75;100.00
3142;BME280;1581;51.568;6.998;2022-12-18T06:20:44;102145.50;;;-6.78;100.00
3142;BME280;1581;51.568;6.998;2022-12-18T06:23:11;102146.41;;;-6.78;100.00
3142;BME280;1581;51.568;6.998;2022-12-18T06:25:39;102144.63;;;-6.77;100.00
3142;BME280;1581;51.568;6.998;2022-12-18T06:28:08;102148.72;;;-6.70;100.00
3142;BME280;1581;51.568;6.998;2022-12-18T06:30:37;102142.63;;;-6.69;100.00
3142;BME280;1581;51.568;6.998;2022-12-18T06:33:06;102143.47;;;-6.68;100.00
3142;BME280;1581;51.568;6.998;2022-12-18T06:35:33;102141.22;;;-6.78;100.00
3142;BME280;1581;51.568;6.998;2022-12-18T06:38:02;102134.06;;;-6.71;100.00
3142;BME280;1581;51.568;6.998;2022-12-18T06:40:29;102128.56;;;-6.60;100.00
3142;BME280;1581;51.568;6.998;2022-12-18T06:42:58;102127.66;;;-6.59;100.00
3142;BME280;1581;51.568;6.998;2022-12-18T06:45:27;102124.28;;;-6.61;100.00
3142;BME280;1581;51.568;6.998;2022-12-18T06:47:55;102115.88;;;-6.69;100.00
3142;BME280;1581;51.568;6.998;2022-12-18T06:50:42;102108.13;;;-6.69;100.00
3142;BME280;1581;51.568;6.998;2022-12-18T06:53:10;102110.56;;;-6.65;100.00
3142;BME280;1581;51.568;6.998;2022-12-18T06:55:37;102115.69;;;-6.63;100.00
3142;BME280;1581;51.568;6.998;2022-12-18T06:58:05;102106.28;;;-6.66;100.00
3142;BME280;1581;51.568;6.998;2022-12-18T07:00:34;102098.34;;;-6.61;100.00
3142;BME280;1581;51.568;6.998;2022-12-18T07:03:02;102094.50;;;-6.50;100.00
3142;BME280;1581;51.568;6.998;2022-12-18T07:05:29;102090.13;;;-6.48;100.00
3142;BME280;1581;51.568;6.998;2022-12-18T07:07:57;102090.03;;;-6.45;100.00
3142;BME280;1581;51.568;6.998;2022-12-18T07:10:25;102093.47;;;-6.44;100.00
3142;BME280;1581;51.568;6.998;2022-12-18T07:12:53;102086.66;;;-6.47;100.00
3142;BME280;1581;51.568;6.998;2022-12-18T07:15:20;102088.50;;;-6.50;100.00
3142;BME280;1581;51.568;6.998;2022-12-18T07:17:49;102092.66;;;-6.46;100.00
3142;BME280;1581;51.568;6.998;2022-12-18T07:20:17;102091.63;;;-6.41;100.00
3142;BME280;1581;51.568;6.998;2022-12-18T07:22:44;102083.75;;;-6.38;100.00
3142;BME280;1581;51.568;6.998;2022-12-18T07:25:12;102089.78;;;-6.37;100.00
3142;BME280;1581;51.568;6.998;2022-12-18T07:27:40;102087.16;;;-6.37;100.00
3142;BME280;1581;51.568;6.998;2022-12-18T07:30:11;102086.88;;;-6.28;100.00
3142;BME280;1581;51.568;6.998;2022-12-18T07:32:38;102074.78;;;-6.28;100.00
3142;BME280;1581;51.568;6.998;2022-12-18T07:35:08;102078.03;;;-6.23;100.00
3142;BME280;1581;51.568;6.998;2022-12-18T07:37:35;102075.56;;;-6.26;100.00
3142;BME280;1581;51.568;6.998;2022-12-18T07:40:09;102074.63;;;-6.23;100.00
3142;BME280;1581;51.568;6.998;2022-12-18T07:42:37;102082.47;;;-6.25;100.00
3142;BME280;1581;51.568;6.998;2022-12-18T07:45:05;102078.81;;;-6.19;100.00
3142;BME280;1581;51.568;6.998;2022-12-18T07:47:35;102086.44;;;-6.15;100.00
3142;BME280;1581;51.568;6.998;2022-12-18T07:50:04;102077.75;;;-6.14;100.00
3142;BME280;1581;51.568;6.998;2022-12-18T07:52:33;102070.56;;;-6.06;100.00
3142;BME280;1581;51.568;6.998;2022-12-18T07:55:00;102084.28;;;-6.02;100.00
3142;BME280;1581;51.568;6.998;2022-12-18T07:57:28;102088.97;;;-5.89;100.00
3142;BME280;1581;51.568;6.998;2022-12-18T08:00:01;102079.25;;;-5.83;100.00
3142;BME280;1581;51.568;6.998;2022-12-18T08:02:30;102092.06;;;-5.78;100.00
3142;BME280;1581;51.568;6.998;2022-12-18T08:04:58;102086.66;;;-5.74;100.00
3142;BME280;1581;51.568;6.998;2022-12-18T08:07:26;102084.75;;;-5.69;100.00
3142;BME280;1581;51.568;6.998;2022-12-18T08:09:55;102087.22;;;-5.64;100.00
3142;BME280;1581;51.568;6.998;2022-12-18T08:12:22;102082.03;;;-5.66;100.00
3142;BME280;1581;51.568;6.998;2022-12-18T08:14:50;102088.78;;;-5.60;100.00
3142;BME280;1581;51.568;6.998;2022-12-18T08:17:19;102074.66;;;-5.53;100.00
3142;BME280;1581;51.568;6.998;2022-12-18T08:19:46;102070.06;;;-5.45;100.00
3142;BME280;1581;51.568;6.998;2022-12-18T08:22:14;102072.06;;;-5.30;100.00
3142;BME280;1581;51.568;6.998;2022-12-18T08:24:42;102059.59;;;-5.21;100.00
3142;BME280;1581;51.568;6.998;2022-12-18T08:27:11;102050.66;;;-5.14;100.00
3142;BME280;1581;51.568;6.998;2022-12-18T08:29:38;102046.00;;;-5.06;100.00
3142;BME280;1581;51.568;6.998;2022-12-18T08:32:06;102032.53;;;-4.94;100.00
3142;BME280;1581;51.568;6.998;2022-12-18T08:34:34;102027.84;;;-4.85;100.00
3142;BME280;1581;51.568;6.998;2022-12-18T08:37:01;102026.72;;;-4.58;100.00
3142;BME280;1581;51.568;6.998;2022-12-18T08:39:29;102029.06;;;-4.52;100.00
3142;BME280;1581;51.568;6.998;2022-12-18T08:41:57;102014.59;;;-4.37;100.00
3142;BME280;1581;51.568;6.998;2022-12-18T08:44:54;102018.84;;;-4.15;100.00
3142;BME280;1581;51.568;6.998;2022-12-18T08:47:27;102010.13;;;-3.76;100.00
3142;BME280;1581;51.568;6.998;2022-12-18T08:49:54;102022.59;;;-3.64;100.00
3142;BME280;1581;51.568;6.998;2022-12-18T08:52:22;102022.97;;;-3.53;100.00
3142;BME280;1581;51.568;6.998;2022-12-18T08:54:49;102028.75;;;-3.28;100.00
3142;BME280;1581;51.568;6.998;2022-12-18T08:57:17;102026.19;;;-2.93;100.00
3142;BME280;1581;51.568;6.998;2022-12-18T08:59:46;102014.56;;;-2.86;100.00
3142;BME280;1581;51.568;6.998;2022-12-18T09:02:14;102020.00;;;-2.55;100.00
3142;BME280;1581;51.568;6.998;2022-12-18T09:04:41;102005.94;;;-2.36;100.00
3142;BME280;1581;51.568;6.998;2022-12-18T09:07:09;102012.63;;;-2.30;100.00
3142;BME280;1581;51.568;6.998;2022-12-18T09:09:36;102003.94;;;-2.14;100.00
3142;BME280;1581;51.568;6.998;2022-12-18T09:12:04;102008.31;;;-1.97;100.00
3142;BME280;1581;51.568;6.998;2022-12-18T09:14:31;102004.78;;;-1.96;100.00
3142;BME280;1581;51.568;6.998;2022-12-18T09:17:00;102004.75;;;-1.79;100.00
3142;BME280;1581;51.568;6.998;2022-12-18T09:19:28;101994.47;;;-1.67;100.00
3142;BME280;1581;51.568;6.998;2022-12-18T09:21:56;101999.06;;;-1.55;100.00
3142;BME280;1581;51.568;6.998;2022-12-18T09:24:30;101998.97;;;-1.54;100.00
3142;BME280;1581;51.568;6.998;2022-12-18T09:26:58;102012.81;;;-1.52;100.00
3142;BME280;1581;51.568;6.998;2022-12-18T09:29:25;101995.88;;;-1.45;100.00
3142;BME280;1581;51.568;6.998;2022-12-18T09:31:53;101994.69;;;-1.39;100.00
3142;BME280;1581;51.568;6.998;2022-12-18T09:34:22;102000.69;;;-1.37;100.00
3142;BME280;1581;51.568;6.998;2022-12-18T09:36:50;102005.66;;;-1.33;100.00
3142;BME280;1581;51.568;6.998;2022-12-18T09:39:17;102010.59;;;-1.27;100.00
3142;BME280;1581;51.568;6.998;2022-12-18T09:41:47;102008.38;;;-1.19;100.00
3142;BME280;1581;51.568;6.998;2022-12-18T09:44:26;102002.81;;;-1.13;100.00
3142;BME280;1581;51.568;6.998;2022-12-18T09:47:08;102001.47;;;-0.89;100.00
3142;BME280;1581;51.568;6.998;2022-12-18T09:49:43;102003.78;;;-0.69;100.00
3142;BME280;1581;51.568;6.998;2022-12-18T09:52:18;102008.25;;;-0.56;100.00
3142;BME280;1581;51.568;6.998;2022-12-18T09:54:53;102012.38;;;-0.52;100.00
3142;BME280;1581;51.568;6.998;2022-12-18T09:57:23;102019.72;;;-0.43;100.00
3142;BME280;1581;51.568;6.998;2022-12-18T10:00:02;102013.06;;;-0.34;100.00
3142;BME280;1581;51.568;6.998;2022-12-18T10:02:31;102002.38;;;-0.16;100.00
3142;BME280;1581;51.568;6.998;2022-12-18T10:05:06;101993.16;;;0.06;100.00
3142;BME280;1581;51.568;6.998;2022-12-18T10:07:50;101984.56;;;0.18;100.00
3142;BME280;1581;51.568;6.998;2022-12-18T10:10:43;101967.31;;;0.28;100.00
3142;BME280;1581;51.568;6.998;2022-12-18T10:13:32;101962.09;;;0.28;100.00
3142;BME280;1581;51.568;6.998;2022-12-18T10:16:12;101959.19;;;0.47;100.00
3142;BME280;1581;51.568;6.998;2022-12-18T10:19:01;101963.00;;;0.55;100.00
3142;BME280;1581;51.568;6.998;2022-12-18T10:21:40;101959.53;;;0.55;100.00
3142;BME280;1581;51.568;6.998;2022-12-18T10:24:23;101958.94;;;0.78;100.00
3142;BME280;1581;51.568;6.998;2022-12-18T10:26:54;101954.88;;;0.86;100.00
3142;BME280;1581;51.568;6.998;2022-12-18T10:29:29;101953.16;;;0.99;100.00
3142;BME280;1581;51.568;6.998;2022-12-18T10:32:00;101941.25;;;1.07;100.00
3142;BME280;1581;51.568;6.998;2022-12-18T10:34:28;101933.38;;;1.07;100.00
3142;BME280;1581;51.568;6.998;2022-12-18T10:36:57;101933.91;;;1.25;100.00
3142;BME280;1581;51.568;6.998;2022-12-18T10:39:28;101932.78;;;1.29;100.00
3142;BME280;1581;51.568;6.998;2022-12-18T10:42:17;101932.47;;;1.33;100.00
3142;BME280;1581;51.568;6.998;2022-12-18T10:45:05;101934.19;;;1.47;100.00
3142;BME280;1581;51.568;6.998;2022-12-18T10:47:36;101929.38;;;1.53;100.00
3142;BME280;1581;51.568;6.998;2022-12-18T10:50:22;101923.63;;;1.61;100.00
3142;BME280;1581;51.568;6.998;2022-12-18T10:52:59;101921.19;;;1.58;100.00
3142;BME280;1581;51.568;6.998;2022-12-18T10:55:35;101919.63;;;1.67;100.00
3142;BME280;1581;51.568;6.998;2022-12-18T10:58:25;101921.63;;;1.76;100.00
3142;BME280;1581;51.568;6.998;2022-12-18T11:01:13;101902.84;;;1.82;100.00
3142;BME280;1581;51.568;6.998;2022-12-18T11:03:45;101912.72;;;1.91;100.00
3142;BME280;1581;51.568;6.998;2022-12-18T11:06:22;101903.13;;;2.03;100.00
3142;BME280;1581;51.568;6.998;2022-12-18T11:09:01;101894.50;;;2.13;100.00
3142;BME280;1581;51.568;6.998;2022-12-18T11:11:29;101887.00;;;2.20;100.00
3142;BME280;1581;51.568;6.998;2022-12-18T11:14:03;101898.56;;;2.30;100.00
3142;BME280;1581;51.568;6.998;2022-12-18T11:16:42;101898.34;;;2.33;100.00
3142;BME280;1581;51.568;6.998;2022-12-18T11:19:28;101895.91;;;2.42;100.00
3142;BME280;1581;51.568;6.998;2022-12-18T11:22:02;101885.16;;;2.45;100.00
3142;BME280;1581;51.568;6.998;2022-12-18T11:24:35;101886.44;;;2.52;100.00
3142;BME280;1581;51.568;6.998;2022-12-18T11:27:05;101872.72;;;2.59;100.00
3142;BME280;1581;51.568;6.998;2022-12-18T11:30:07;101869.38;;;2.57;100.00
3142;BME280;1581;51.568;6.998;2022-12-18T11:32:43;101867.13;;;2.64;100.00
3142;BME280;1581;51.568;6.998;2022-12-18T11:35:17;101862.22;;;2.70;100.00
3142;BME280;1581;51.568;6.998;2022-12-18T11:37:54;101861.41;;;2.70;100.00
3142;BME280;1581;51.568;6.998;2022-12-18T11:40:34;101845.50;;;2.71;100.00
3142;BME280;1581;51.568;6.998;2022-12-18T11:43:10;101850.53;;;2.74;100.00
3142;BME280;1581;51.568;6.998;2022-12-18T11:45:45;101839.47;;;2.82;100.00
3142;BME280;1581;51.568;6.998;2022-12-18T11:48:18;101833.34;;;2.81;100.00
3142;BME280;1581;51.568;6.998;2022-12-18T11:50:52;101827.41;;;2.90;100.00
3142;BME280;1581;51.568;6.998;2022-12-18T11:53:20;101837.22;;;2.88;100.00
3142;BME280;1581;51.568;6.998;2022-12-18T11:56:02;101824.75;;;2.90;100.00
3142;BME280;1581;51.568;6.998;2022-12-18T11:58:46;101826.09;;;2.96;100.00
3142;BME280;1581;51.568;6.998;2022-12-18T12:01:32;101829.69;;;2.95;100.00
3142;BME280;1581;51.568;6.998;2022-12-18T12:04:33;101822.78;;;3.05;100.00
3142;BME280;1581;51.568;6.998;2022-12-18T12:07:17;101820.44;;;3.13;100.00
3142;BME280;1581;51.568;6.998;2022-12-18T12:10:03;101819.19;;;3.06;100.00
3142;BME280;1581;51.568;6.998;2022-12-18T12:12:50;101825.81;;;3.11;100.00
3142;BME280;1581;51.568;6.998;2022-12-18T12:15:33;101824.75;;;3.14;100.00
3142;BME280;1581;51.568;6.998;2022-12-18T12:18:13;101829.78;;;3.17;100.00
3142;BME280;1581;51.568;6.998;2022-12-18T12:20:53;101825.75;;;3.24;100.00
3142;BME280;1581;51.568;6.998;2022-12-18T12:23:32;101824.16;;;3.21;100.00
3142;BME280;1581;51.568;6.998;2022-12-18T12:26:07;101813.91;;;3.29;100.00
3142;BME280;1581;51.568;6.998;2022-12-18T12:29:02;101804.66;;;3.24;99.60
3142;BME280;1581;51.568;6.998;2022-12-18T12:32:01;101810.75;;;3.24;100.00
3142;BME280;1581;51.568;6.998;2022-12-18T12:34:38;101807.50;;;3.10;99.28
3142;BME280;1581;51.568;6.998;2022-12-18T12:37:21;101804.63;;;3.13;100.00
3142;BME280;1581;51.568;6.998;2022-12-18T12:39:52;101801.75;;;3.16;100.00
3142;BME280;1581;51.568;6.998;2022-12-18T12:42:31;101795.69;;;3.26;100.00
3142;BME280;1581;51.568;6.998;2022-12-18T12:45:26;101799.16;;;3.27;100.00
3142;BME280;1581;51.568;6.998;2022-12-18T12:47:56;101791.38;;;3.25;100.00
3142;BME280;1581;51.568;6.998;2022-12-18T12:50:26;101788.88;;;3.24;100.00
3142;BME280;1581;51.568;6.998;2022-12-18T12:52:56;101785.88;;;3.28;100.00
3142;BME280;1581;51.568;6.998;2022-12-18T12:55:26;101786.69;;;3.18;100.00
3142;BME280;1581;51.568;6.998;2022-12-18T12:58:01;101785.81;;;3.06;98.85
3142;BME280;1581;51.568;6.998;2022-12-18T13:00:45;101781.63;;;3.04;98.06
3142;BME280;1581;51.568;6.998;2022-12-18T13:03:30;101784.97;;;3.06;97.66
3142;BME280;1581;51.568;6.998;2022-12-18T13:06:08;101781.47;;;2.94;97.49
3142;BME280;1581;51.568;6.998;2022-12-18T13:08:55;101779.91;;;2.92;98.65
3142;BME280;1581;51.568;6.998;2022-12-18T13:11:46;101783.38;;;2.92;99.51
3142;BME280;1581;51.568;6.998;2022-12-18T13:14:34;101780.88;;;2.91;100.00
3142;BME280;1581;51.568;6.998;2022-12-18T13:17:31;101780.47;;;2.84;100.00
3142;BME280;1581;51.568;6.998;2022-12-18T13:20:13;101781.00;;;2.89;100.00
3142;BME280;1581;51.568;6.998;2022-12-18T13:22:44;101775.44;;;2.81;100.00
3142;BME280;1581;51.568;6.998;2022-12-18T13:25:34;101772.34;;;2.76;100.00
3142;BME280;1581;51.568;6.998;2022-12-18T13:28:11;101771.59;;;2.74;100.00
3142;BME280;1581;51.568;6.998;2022-12-18T13:30:49;101773.00;;;2.67;100.00
3142;BME280;1581;51.568;6.998;2022-12-18T13:33:43;101762.31;;;2.58;100.00
3142;BME280;1581;51.568;6.998;2022-12-18T13:36:31;101764.84;;;2.59;100.00